sensor_id;sensor_type;location;lat;lon;timestamp;P1;durP1;ratioP1;P2;durP2;ratioP2
7539;SDS011;3811;49.006;12.076;2024-03-02T00:00:52;15.83;;;10.10;;
7539;SDS011;3811;49.006;12.076;2024-03-02T00:03:19;17.70;;;8.93;;
7539;SDS011;3811;49.006;12.076;2024-03-02T00:05:50;16.27;;;11.00;;
7539;SDS011;3811;49.006;12.076;2024-03-02T00:08:23;12.33;;;8.47;;
7539;SDS011;3811;49.006;12.076;2024-03-02T00:10:52;13.20;;;8.27;;
7539;SDS011;3811;49.006;12.076;2024-03-02T00:13:20;15.53;;;10.83;;
7539;SDS011;3811;49.006;12.076;2024-03-02T00:15:51;16.07;;;9.83;;
7539;SDS011;3811;49.006;12.076;2024-03-02T00:18:19;13.53;;;9.97;;
7539;SDS011;3811;49.006;12.076;2024-03-02T00:20:46;15.53;;;8.37;;
7539;SDS011;3811;49.006;12.076;2024-03-02T00:23:14;14.83;;;8.17;;
7539;SDS011;3811;49.006;12.076;2024-03-02T00:25:44;16.27;;;9.47;;
7539;SDS011;3811;49.006;12.076;2024-03-02T00:28:14;15.30;;;10.00;;
7539;SDS011;3811;49.006;12.076;2024-03-02T00:30:59;11.70;;;8.17;;
7539;SDS011;3811;49.006;12.076;2024-03-02T00:33:30;12.37;;;7.90;;
7539;SDS011;3811;49.006;12.076;2024-03-02T00:35:58;12.17;;;9.03;;
7539;SDS011;3811;49.006;12.076;2024-03-02T00:38:26;11.80;;;8.73;;
7539;SDS011;3811;49.006;12.076;2024-03-02T00:40:55;16.07;;;8.30;;
7539;SDS011;3811;49.006;12.076;2024-03-02T00:43:37;15.10;;;10.33;;
7539;SDS011;3811;49.006;12.076;2024-03-02T00:46:06;14.87;;;7.93;;
7539;SDS011;3811;49.006;12.076;2024-03-02T00:48:33;14.60;;;10.80;;
7539;SDS011;3811;49.006;12.076;2024-03-02T00:51:01;15.13;;;9.77;;
7539;SDS011;3811;49.006;12.076;2024-03-02T00:53:29;14.63;;;10.10;;
7539;SDS011;3811;49.006;12.076;2024-03-02T00:55:58;18.10;;;9.73;;
7539;SDS011;3811;49.006;12.076;2024-03-02T00:58:25;15.03;;;9.67;;
7539;SDS011;3811;49.006;12.076;2024-03-02T01:00:53;14.20;;;8.93;;
7539;SDS011;3811;49.006;12.076;2024-03-02T01:03:20;14.00;;;10.17;;
7539;SDS011;3811;49.006;12.076;2024-03-02T01:05:47;17.13;;;10.23;;
7539;SDS011;3811;49.006;12.076;2024-03-02T01:08:15;12.13;;;9.10;;
7539;SDS011;3811;49.006;12.076;2024-03-02T01:10:42;14.80;;;9.20;;
7539;SDS011;3811;49.006;12.076;2024-03-02T01:13:11;14.67;;;9.17;;
7539;SDS011;3811;49.006;12.076;2024-03-02T01:15:38;19.60;;;10.93;;
7539;SDS011;3811;49.006;12.076;2024-03-02T01:18:05;19.47;;;11.03;;
7539;SDS011;3811;49.006;12.076;2024-03-02T01:20:33;12.60;;;8.33;;
7539;SDS011;3811;49.006;12.076;2024-03-02T01:23:00;16.07;;;9.60;;
7539;SDS011;3811;49.006;12.076;2024-03-02T01:25:28;16.63;;;10.03;;
7539;SDS011;3811;49.006;12.076;2024-03-02T01:27:55;12.53;;;9.30;;
7539;SDS011;3811;49.006;12.076;2024-03-02T01:30:23;11.80;;;9.93;;
7539;SDS011;3811;49.006;12.076;2024-03-02T01:32:51;14.60;;;10.73;;
7539;SDS011;3811;49.006;12.076;2024-03-02T01:35:18;13.53;;;9.23;;
7539;SDS011;3811;49.006;12.076;2024-03-02T01:37:45;14.90;;;9.13;;
7539;SDS011;3811;49.006;12.076;2024-03-02T01:40:12;15.70;;;9.13;;
7539;SDS011;3811;49.006;12.076;2024-03-02T01:42:39;14.97;;;8.23;;
7539;SDS011;3811;49.006;12.076;2024-03-02T01:45:07;12.43;;;8.17;;
7539;SDS011;3811;49.006;12.076;2024-03-02T01:47:36;13.50;;;8.93;;
7539;SDS011;3811;49.006;12.076;2024-03-02T01:50:03;13.20;;;7.43;;
7539;SDS011;3811;49.006;12.076;2024-03-02T01:52:30;12.20;;;8.27;;
7539;SDS011;3811;49.006;12.076;2024-03-02T01:54:58;18.03;;;10.73;;
7539;SDS011;3811;49.006;12.076;2024-03-02T01:57:25;13.27;;;9.10;;
7539;SDS011;3811;49.006;12.076;2024-03-02T01:59:52;12.40;;;8.47;;
7539;SDS011;3811;49.006;12.076;2024-03-02T02:02:19;15.03;;;10.17;;
7539;SDS011;3811;49.006;12.076;2024-03-02T02:04:48;12.33;;;8.03;;
7539;SDS011;3811;49.006;12.076;2024-03-02T02:07:15;12.30;;;8.33;;
7539;SDS011;3811;49.006;12.076;2024-03-02T02:09:42;18.27;;;10.80;;
7539;SDS011;3811;49.006;12.076;2024-03-02T02:12:10;16.60;;;9.50;;
7539;SDS011;3811;49.006;12.076;2024-03-02T02:14:37;17.77;;;9.63;;
7539;SDS011;3811;49.006;12.076;2024-03-02T02:17:05;12.63;;;8.30;;
7539;SDS011;3811;49.006;12.076;2024-03-02T02:19:32;11.57;;;8.57;;
7539;SDS011;3811;49.006;12.076;2024-03-02T02:22:01;16.73;;;8.00;;
7539;SDS011;3811;49.006;12.076;2024-03-02T02:24:28;18.30;;;10.13;;
7539;SDS011;3811;49.006;12.076;2024-03-02T02:26:55;19.23;;;9.13;;
7539;SDS011;3811;49.006;12.076;2024-03-02T02:29:23;16.80;;;10.03;;
7539;SDS011;3811;49.006;12.076;2024-03-02T02:31:50;12.80;;;9.13;;
7539;SDS011;3811;49.006;12.076;2024-03-02T02:34:17;13.80;;;8.93;;
7539;SDS011;3811;49.006;12.076;2024-03-02T02:36:44;14.63;;;9.53;;
7539;SDS011;3811;49.006;12.076;2024-03-02T02:39:13;15.17;;;9.83;;
7539;SDS011;3811;49.006;12.076;2024-03-02T02:41:41;13.73;;;7.93;;
7539;SDS011;3811;49.006;12.076;2024-03-02T02:44:09;15.87;;;9.23;;
7539;SDS011;3811;49.006;12.076;2024-03-02T02:46:38;10.47;;;8.23;;
7539;SDS011;3811;49.006;12.076;2024-03-02T02:49:05;9.93;;;8.37;;
7539;SDS011;3811;49.006;12.076;2024-03-02T02:51:32;13.90;;;8.50;;
7539;SDS011;3811;49.006;12.076;2024-03-02T02:53:59;12.63;;;7.57;;
7539;SDS011;3811;49.006;12.076;2024-03-02T02:56:28;11.50;;;8.50;;
7539;SDS011;3811;49.006;12.076;2024-03-02T02:58:55;13.00;;;9.33;;
7539;SDS011;3811;49.006;12.076;2024-03-02T03:01:22;16.53;;;10.50;;
7539;SDS011;3811;49.006;12.076;2024-03-02T03:03:49;17.00;;;9.90;;
7539;SDS011;3811;49.006;12.076;2024-03-02T03:06:16;13.33;;;8.17;;
7539;SDS011;3811;49.006;12.076;2024-03-02T03:08:44;18.70;;;9.47;;
7539;SDS011;3811;49.006;12.076;2024-03-02T03:11:11;13.50;;;8.40;;
7539;SDS011;3811;49.006;12.076;2024-03-02T03:13:39;12.50;;;9.27;;
7539;SDS011;3811;49.006;12.076;2024-03-02T03:16:06;12.07;;;9.07;;
7539;SDS011;3811;49.006;12.076;2024-03-02T03:18:34;14.70;;;9.37;;
7539;SDS011;3811;49.006;12.076;2024-03-02T03:21:01;13.83;;;8.97;;
7539;SDS011;3811;49.006;12.076;2024-03-02T03:23:28;12.47;;;7.90;;
7539;SDS011;3811;49.006;12.076;2024-03-02T03:25:55;12.17;;;9.00;;
7539;SDS011;3811;49.006;12.076;2024-03-02T03:28:22;20.93;;;10.73;;
7539;SDS011;3811;49.006;12.076;2024-03-02T03:30:51;13.17;;;8.87;;
7539;SDS011;3811;49.006;12.076;2024-03-02T03:33:18;16.20;;;9.90;;
7539;SDS011;3811;49.006;12.076;2024-03-02T03:35:45;11.70;;;9.73;;
7539;SDS011;3811;49.006;12.076;2024-03-02T03:38:13;16.37;;;9.93;;
7539;SDS011;3811;49.006;12.076;2024-03-02T03:40:40;19.80;;;9.53;;
7539;SDS011;3811;49.006;12.076;2024-03-02T03:43:07;16.50;;;10.10;;
7539;SDS011;3811;49.006;12.076;2024-03-02T03:45:34;14.10;;;9.00;;
7539;SDS011;3811;49.006;12.076;2024-03-02T03:48:03;11.70;;;9.57;;
7539;SDS011;3811;49.006;12.076;2024-03-02T03:50:31;17.73;;;11.47;;
7539;SDS011;3811;49.006;12.076;2024-03-02T03:52:58;13.23;;;9.53;;
7539;SDS011;3811;49.006;12.076;2024-03-02T03:55:25;20.53;;;10.53;;
7539;SDS011;3811;49.006;12.076;2024-03-02T03:57:52;22.30;;;10.40;;
7539;SDS011;3811;49.006;12.076;2024-03-02T04:00:19;15.53;;;9.83;;
7539;SDS011;3811;49.006;12.076;2024-03-02T04:02:47;14.70;;;9.03;;
7539;SDS011;3811;49.006;12.076;2024-03-02T04:05:15;14.83;;;9.50;;
7539;SDS011;3811;49.006;12.076;2024-03-02T04:07:42;17.07;;;10.67;;
7539;SDS011;3811;49.006;12.076;2024-03-02T04:10:10;19.87;;;9.20;;
7539;SDS011;3811;49.006;12.076;2024-03-02T04:12:37;16.83;;;11.77;;
7539;SDS011;3811;49.006;12.076;2024-03-02T04:15:05;12.07;;;9.10;;
7539;SDS011;3811;49.006;12.076;2024-03-02T04:17:33;13.60;;;10.23;;
7539;SDS011;3811;49.006;12.076;2024-03-02T04:20:01;15.67;;;7.20;;
7539;SDS011;3811;49.006;12.076;2024-03-02T04:22:32;16.93;;;10.37;;
7539;SDS011;3811;49.006;12.076;2024-03-02T04:25:00;11.33;;;9.67;;
7539;SDS011;3811;49.006;12.076;2024-03-02T04:27:29;18.03;;;10.63;;
7539;SDS011;3811;49.006;12.076;2024-03-02T04:29:58;16.07;;;9.50;;
7539;SDS011;3811;49.006;12.076;2024-03-02T04:32:25;15.40;;;10.40;;
7539;SDS011;3811;49.006;12.076;2024-03-02T04:34:53;19.70;;;9.97;;
7539;SDS011;3811;49.006;12.076;2024-03-02T04:37:20;14.47;;;9.47;;
7539;SDS011;3811;49.006;12.076;2024-03-02T04:39:48;17.17;;;11.90;;
7539;SDS011;3811;49.006;12.076;2024-03-02T04:42:16;16.10;;;9.43;;
7539;SDS011;3811;49.006;12.076;2024-03-02T04:44:43;15.03;;;11.03;;
7539;SDS011;3811;49.006;12.076;2024-03-02T04:47:10;20.00;;;11.67;;
7539;SDS011;3811;49.006;12.076;2024-03-02T04:49:37;15.90;;;9.97;;
7539;SDS011;3811;49.006;12.076;2024-03-02T04:52:05;17.67;;;10.53;;
7539;SDS011;3811;49.006;12.076;2024-03-02T04:54:32;16.33;;;10.23;;
7539;SDS011;3811;49.006;12.076;2024-03-02T04:57:20;12.23;;;9.13;;
7539;SDS011;3811;49.006;12.076;2024-03-02T04:59:47;17.67;;;10.77;;
7539;SDS011;3811;49.006;12.076;2024-03-02T05:02:15;13.43;;;8.73;;
7539;SDS011;3811;49.006;12.076;2024-03-02T05:04:42;14.70;;;10.53;;
7539;SDS011;3811;49.006;12.076;2024-03-02T05:07:09;15.83;;;11.63;;
7539;SDS011;3811;49.006;12.076;2024-03-02T05:09:36;17.57;;;9.23;;
7539;SDS011;3811;49.006;12.076;2024-03-02T05:12:04;14.90;;;10.07;;
7539;SDS011;3811;49.006;12.076;2024-03-02T05:14:49;20.47;;;11.83;;
7539;SDS011;3811;49.006;12.076;2024-03-02T05:17:16;17.37;;;9.23;;
7539;SDS011;3811;49.006;12.076;2024-03-02T05:19:44;18.53;;;10.90;;
7539;SDS011;3811;49.006;12.076;2024-03-02T05:22:11;16.63;;;10.43;;
7539;SDS011;3811;49.006;12.076;2024-03-02T05:24:38;14.20;;;9.40;;
7539;SDS011;3811;49.006;12.076;2024-03-02T05:27:05;14.23;;;9.57;;
7539;SDS011;3811;49.006;12.076;2024-03-02T05:29:32;15.40;;;10.17;;
7539;SDS011;3811;49.006;12.076;2024-03-02T05:32:01;11.13;;;8.30;;
7539;SDS011;3811;49.006;12.076;2024-03-02T05:34:28;15.07;;;10.43;;
7539;SDS011;3811;49.006;12.076;2024-03-02T05:36:57;17.53;;;11.17;;
7539;SDS011;3811;49.006;12.076;2024-03-02T05:39:25;14.33;;;9.83;;
7539;SDS011;3811;49.006;12.076;2024-03-02T05:41:52;19.03;;;10.07;;
7539;SDS011;3811;49.006;12.076;2024-03-02T05:44:19;14.67;;;10.00;;
7539;SDS011;3811;49.006;12.076;2024-03-02T05:46:47;15.77;;;10.40;;
7539;SDS011;3811;49.006;12.076;2024-03-02T05:49:16;13.07;;;9.27;;
7539;SDS011;3811;49.006;12.076;2024-03-02T05:51:43;16.03;;;9.63;;
7539;SDS011;3811;49.006;12.076;2024-03-02T05:54:10;14.93;;;9.90;;
7539;SDS011;3811;49.006;12.076;2024-03-02T05:56:37;14.10;;;10.10;;
7539;SDS011;3811;49.006;12.076;2024-03-02T05:59:04;15.20;;;10.73;;
7539;SDS011;3811;49.006;12.076;2024-03-02T06:01:37;13.03;;;8.53;;
7539;SDS011;3811;49.006;12.076;2024-03-02T06:04:05;17.87;;;10.47;;
7539;SDS011;3811;49.006;12.076;2024-03-02T06:06:33;19.10;;;12.17;;
7539;SDS011;3811;49.006;12.076;2024-03-02T06:09:00;13.47;;;9.00;;
7539;SDS011;3811;49.006;12.076;2024-03-02T06:11:30;15.03;;;9.47;;
7539;SDS011;3811;49.006;12.076;2024-03-02T06:13:57;14.23;;;9.63;;
7539;SDS011;3811;49.006;12.076;2024-03-02T06:16:24;15.77;;;11.00;;
7539;SDS011;3811;49.006;12.076;2024-03-02T06:18:51;18.83;;;10.03;;
7539;SDS011;3811;49.006;12.076;2024-03-02T06:21:19;15.83;;;11.13;;
7539;SDS011;3811;49.006;12.076;2024-03-02T06:23:48;13.00;;;9.37;;
7539;SDS011;3811;49.006;12.076;2024-03-02T06:26:15;15.23;;;9.17;;
7539;SDS011;3811;49.006;12.076;2024-03-02T06:28:42;14.63;;;9.27;;
7539;SDS011;3811;49.006;12.076;2024-03-02T06:31:10;17.13;;;10.87;;
7539;SDS011;3811;49.006;12.076;2024-03-02T06:33:37;16.43;;;10.43;;
7539;SDS011;3811;49.006;12.076;2024-03-02T06:36:05;19.43;;;10.70;;
7539;SDS011;3811;49.006;12.076;2024-03-02T06:38:33;19.93;;;11.53;;
7539;SDS011;3811;49.006;12.076;2024-03-02T06:41:02;18.63;;;10.30;;
7539;SDS011;3811;49.006;12.076;2024-03-02T06:43:29;15.07;;;11.10;;
7539;SDS011;3811;49.006;12.076;2024-03-02T06:45:56;18.00;;;10.90;;
7539;SDS011;3811;49.006;12.076;2024-03-02T06:48:23;17.47;;;11.53;;
7539;SDS011;3811;49.006;12.076;2024-03-02T06:50:50;14.17;;;10.37;;
7539;SDS011;3811;49.006;12.076;2024-03-02T06:53:18;13.53;;;10.53;;
7539;SDS011;3811;49.006;12.076;2024-03-02T06:55:46;23.33;;;12.67;;
7539;SDS011;3811;49.006;12.076;2024-03-02T06:58:15;16.27;;;10.37;;
7539;SDS011;3811;49.006;12.076;2024-03-02T07:00:42;18.00;;;11.13;;
7539;SDS011;3811;49.006;12.076;2024-03-02T07:03:10;19.50;;;10.27;;
7539;SDS011;3811;49.006;12.076;2024-03-02T07:05:37;14.47;;;9.77;;
7539;SDS011;3811;49.006;12.076;2024-03-02T07:08:05;20.27;;;11.93;;
7539;SDS011;3811;49.006;12.076;2024-03-02T07:10:32;16.57;;;10.57;;
7539;SDS011;3811;49.006;12.076;2024-03-02T07:12:59;15.30;;;11.07;;
7539;SDS011;3811;49.006;12.076;2024-03-02T07:15:28;18.97;;;9.60;;
7539;SDS011;3811;49.006;12.076;2024-03-02T07:18:09;15.60;;;10.53;;
7539;SDS011;3811;49.006;12.076;2024-03-02T07:20:36;23.17;;;12.27;;
7539;SDS011;3811;49.006;12.076;2024-03-02T07:23:04;13.70;;;11.03;;
7539;SDS011;3811;49.006;12.076;2024-03-02T07:25:32;15.87;;;12.13;;
7539;SDS011;3811;49.006;12.076;2024-03-02T07:27:59;19.73;;;10.90;;
7539;SDS011;3811;49.006;12.076;2024-03-02T07:30:27;20.63;;;11.50;;
7539;SDS011;3811;49.006;12.076;2024-03-02T07:32:55;17.60;;;12.27;;
7539;SDS011;3811;49.006;12.076;2024-03-02T07:35:22;14.10;;;11.03;;
7539;SDS011;3811;49.006;12.076;2024-03-02T07:37:52;15.90;;;10.37;;
7539;SDS011;3811;49.006;12.076;2024-03-02T07:40:20;19.50;;;10.17;;
7539;SDS011;3811;49.006;12.076;2024-03-02T07:42:47;18.77;;;11.57;;
7539;SDS011;3811;49.006;12.076;2024-03-02T07:45:15;19.87;;;12.50;;
7539;SDS011;3811;49.006;12.076;2024-03-02T07:47:43;23.07;;;9.80;;
7539;SDS011;3811;49.006;12.076;2024-03-02T07:50:10;20.27;;;13.03;;
7539;SDS011;3811;49.006;12.076;2024-03-02T07:52:38;18.87;;;11.67;;
7539;SDS011;3811;49.006;12.076;2024-03-02T07:55:05;21.27;;;11.43;;
7539;SDS011;3811;49.006;12.076;2024-03-02T07:57:32;17.30;;;10.60;;
7539;SDS011;3811;49.006;12.076;2024-03-02T08:00:00;21.70;;;11.97;;
7539;SDS011;3811;49.006;12.076;2024-03-02T08:02:37;19.23;;;10.90;;
7539;SDS011;3811;49.006;12.076;2024-03-02T08:05:06;16.10;;;11.00;;
7539;SDS011;3811;49.006;12.076;2024-03-02T08:07:33;22.17;;;12.63;;
7539;SDS011;3811;49.006;12.076;2024-03-02T08:10:00;17.57;;;11.03;;
7539;SDS011;3811;49.006;12.076;2024-03-02T08:12:29;14.37;;;10.53;;
7539;SDS011;3811;49.006;12.076;2024-03-02T08:14:56;17.33;;;10.47;;
7539;SDS011;3811;49.006;12.076;2024-03-02T08:17:23;18.67;;;12.27;;
7539;SDS011;3811;49.006;12.076;2024-03-02T08:19:50;16.10;;;11.67;;
7539;SDS011;3811;49.006;12.076;2024-03-02T08:22:19;14.67;;;10.60;;
7539;SDS011;3811;49.006;12.076;2024-03-02T08:24:50;18.47;;;11.10;;
7539;SDS011;3811;49.006;12.076;2024-03-02T08:27:18;14.37;;;9.93;;
7539;SDS011;3811;49.006;12.076;2024-03-02T08:29:45;19.80;;;9.90;;
7539;SDS011;3811;49.006;12.076;2024-03-02T08:32:13;16.83;;;11.33;;
7539;SDS011;3811;49.006;12.076;2024-03-02T08:34:42;16.93;;;11.13;;
7539;SDS011;3811;49.006;12.076;2024-03-02T08:37:10;19.03;;;9.90;;
7539;SDS011;3811;49.006;12.076;2024-03-02T08:39:39;19.97;;;12.17;;
7539;SDS011;3811;49.006;12.076;2024-03-02T08:42:07;18.67;;;12.30;;
7539;SDS011;3811;49.006;12.076;2024-03-02T08:44:35;15.77;;;11.23;;
7539;SDS011;3811;49.006;12.076;2024-03-02T08:47:02;18.10;;;12.83;;
7539;SDS011;3811;49.006;12.076;2024-03-02T08:49:30;16.30;;;10.27;;
7539;SDS011;3811;49.006;12.076;2024-03-02T08:51:58;17.33;;;11.23;;
7539;SDS011;3811;49.006;12.076;2024-03-02T08:54:25;17.77;;;9.70;;
7539;SDS011;3811;49.006;12.076;2024-03-02T08:56:54;16.50;;;10.60;;
7539;SDS011;3811;49.006;12.076;2024-03-02T08:59:22;20.87;;;11.17;;
7539;SDS011;3811;49.006;12.076;2024-03-02T09:01:53;15.90;;;10.97;;
7539;SDS011;3811;49.006;12.076;2024-03-02T09:04:20;15.20;;;9.97;;
7539;SDS011;3811;49.006;12.076;2024-03-02T09:06:48;12.93;;;10.33;;
7539;SDS011;3811;49.006;12.076;2024-03-02T09:09:15;14.57;;;8.97;;
7539;SDS011;3811;49.006;12.076;2024-03-02T09:11:43;18.47;;;9.70;;
7539;SDS011;3811;49.006;12.076;2024-03-02T09:14:12;15.13;;;9.30;;
7539;SDS011;3811;49.006;12.076;2024-03-02T09:16:43;15.87;;;11.87;;
7539;SDS011;3811;49.006;12.076;2024-03-02T09:19:11;13.47;;;9.90;;
7539;SDS011;3811;49.006;12.076;2024-03-02T09:21:38;16.50;;;10.23;;
7539;SDS011;3811;49.006;12.076;2024-03-02T09:24:06;14.57;;;9.63;;
7539;SDS011;3811;49.006;12.076;2024-03-02T09:26:33;18.17;;;10.57;;
7539;SDS011;3811;49.006;12.076;2024-03-02T09:29:04;14.57;;;10.20;;
7539;SDS011;3811;49.006;12.076;2024-03-02T09:31:33;13.80;;;9.67;;
7539;SDS011;3811;49.006;12.076;2024-03-02T09:34:06;21.40;;;11.70;;
7539;SDS011;3811;49.006;12.076;2024-03-02T09:36:34;13.00;;;10.23;;
7539;SDS011;3811;49.006;12.076;2024-03-02T09:39:02;18.40;;;11.40;;
7539;SDS011;3811;49.006;12.076;2024-03-02T09:41:30;16.90;;;11.63;;
7539;SDS011;3811;49.006;12.076;2024-03-02T09:43:58;16.43;;;11.20;;
7539;SDS011;3811;49.006;12.076;2024-03-02T09:46:26;18.20;;;11.80;;
7539;SDS011;3811;49.006;12.076;2024-03-02T09:48:55;16.13;;;10.23;;
7539;SDS011;3811;49.006;12.076;2024-03-02T09:51:22;13.43;;;9.73;;
7539;SDS011;3811;49.006;12.076;2024-03-02T09:53:50;15.40;;;10.63;;
7539;SDS011;3811;49.006;12.076;2024-03-02T09:56:18;14.87;;;10.03;;
7539;SDS011;3811;49.006;12.076;2024-03-02T09:58:46;22.03;;;10.30;;
7539;SDS011;3811;49.006;12.076;2024-03-02T10:01:13;10.90;;;9.03;;
7539;SDS011;3811;49.006;12.076;2024-03-02T10:03:41;13.80;;;9.00;;
7539;SDS011;3811;49.006;12.076;2024-03-02T10:06:19;13.50;;;9.57;;
7539;SDS011;3811;49.006;12.076;2024-03-02T10:08:47;14.20;;;10.63;;
7539;SDS011;3811;49.006;12.076;2024-03-02T10:11:25;14.00;;;10.63;;
7539;SDS011;3811;49.006;12.076;2024-03-02T10:14:03;14.27;;;9.50;;
7539;SDS011;3811;49.006;12.076;2024-03-02T10:16:33;14.70;;;9.87;;
7539;SDS011;3811;49.006;12.076;2024-03-02T10:19:14;14.13;;;9.33;;
7539;SDS011;3811;49.006;12.076;2024-03-02T10:21:44;12.13;;;8.87;;
7539;SDS011;3811;49.006;12.076;2024-03-02T10:24:12;13.80;;;9.70;;
7539;SDS011;3811;49.006;12.076;2024-03-02T10:26:39;12.63;;;8.43;;
7539;SDS011;3811;49.006;12.076;2024-03-02T10:29:07;11.40;;;8.07;;
7539;SDS011;3811;49.006;12.076;2024-03-02T10:31:36;10.83;;;9.03;;
7539;SDS011;3811;49.006;12.076;2024-03-02T10:34:04;16.13;;;10.33;;
7539;SDS011;3811;49.006;12.076;2024-03-02T10:36:33;10.37;;;8.13;;
7539;SDS011;3811;49.006;12.076;2024-03-02T10:39:06;10.43;;;8.37;;
7539;SDS011;3811;49.006;12.076;2024-03-02T10:41:38;14.60;;;9.47;;
7539;SDS011;3811;49.006;12.076;2024-03-02T10:44:06;14.27;;;8.00;;
7539;SDS011;3811;49.006;12.076;2024-03-02T10:46:36;16.37;;;7.93;;
7539;SDS011;3811;49.006;12.076;2024-03-02T10:49:04;12.47;;;8.10;;
7539;SDS011;3811;49.006;12.076;2024-03-02T10:51:33;13.63;;;7.60;;
7539;SDS011;3811;49.006;12.076;2024-03-02T10:54:02;12.63;;;8.23;;
7539;SDS011;3811;49.006;12.076;2024-03-02T10:56:31;12.10;;;7.77;;
7539;SDS011;3811;49.006;12.076;2024-03-02T10:59:03;13.53;;;7.87;;
7539;SDS011;3811;49.006;12.076;2024-03-02T11:01:31;13.17;;;7.93;;
7539;SDS011;3811;49.006;12.076;2024-03-02T11:03:59;13.73;;;7.43;;
7539;SDS011;3811;49.006;12.076;2024-03-02T11:06:29;15.87;;;7.93;;
7539;SDS011;3811;49.006;12.076;2024-03-02T11:09:00;11.43;;;7.73;;
7539;SDS011;3811;49.006;12.076;2024-03-02T11:11:36;14.53;;;8.63;;
7539;SDS011;3811;49.006;12.076;2024-03-02T11:14:04;12.60;;;7.57;;
7539;SDS011;3811;49.006;12.076;2024-03-02T11:16:35;14.10;;;8.83;;
7539;SDS011;3811;49.006;12.076;2024-03-02T11:19:04;12.17;;;7.73;;
7539;SDS011;3811;49.006;12.076;2024-03-02T11:21:33;10.50;;;7.27;;
7539;SDS011;3811;49.006;12.076;2024-03-02T11:24:13;11.07;;;7.43;;
7539;SDS011;3811;49.006;12.076;2024-03-02T11:27:00;13.20;;;7.53;;
7539;SDS011;3811;49.006;12.076;2024-03-02T11:29:43;11.67;;;9.03;;
7539;SDS011;3811;49.006;12.076;2024-03-02T11:32:14;12.73;;;8.57;;
7539;SDS011;3811;49.006;12.076;2024-03-02T11:34:44;13.67;;;8.10;;
7539;SDS011;3811;49.006;12.076;2024-03-02T11:37:13;13.70;;;6.87;;
7539;SDS011;3811;49.006;12.076;2024-03-02T11:39:42;10.83;;;7.87;;
7539;SDS011;3811;49.006;12.076;2024-03-02T11:42:12;12.63;;;8.03;;
7539;SDS011;3811;49.006;12.076;2024-03-02T11:44:41;13.50;;;7.97;;
7539;SDS011;3811;49.006;12.076;2024-03-02T11:47:10;12.70;;;7.67;;
7539;SDS011;3811;49.006;12.076;2024-03-02T11:49:43;9.30;;;6.70;;
7539;SDS011;3811;49.006;12.076;2024-03-02T11:52:11;12.00;;;7.23;;
7539;SDS011;3811;49.006;12.076;2024-03-02T11:54:40;8.63;;;7.17;;
7539;SDS011;3811;49.006;12.076;2024-03-02T11:57:14;12.77;;;8.70;;
7539;SDS011;3811;49.006;12.076;2024-03-02T11:59:42;9.53;;;6.27;;
7539;SDS011;3811;49.006;12.076;2024-03-02T12:02:14;9.43;;;6.57;;
7539;SDS011;3811;49.006;12.076;2024-03-02T12:04:42;10.63;;;6.97;;
7539;SDS011;3811;49.006;12.076;2024-03-02T12:07:10;9.47;;;6.53;;
7539;SDS011;3811;49.006;12.076;2024-03-02T12:09:37;9.80;;;6.73;;
7539;SDS011;3811;49.006;12.076;2024-03-02T12:12:05;11.20;;;7.50;;
7539;SDS011;3811;49.006;12.076;2024-03-02T12:14:34;10.67;;;7.37;;
7539;SDS011;3811;49.006;12.076;2024-03-02T12:17:02;11.53;;;6.90;;
7539;SDS011;3811;49.006;12.076;2024-03-02T12:19:29;11.63;;;7.87;;
7539;SDS011;3811;49.006;12.076;2024-03-02T12:21:57;9.33;;;7.00;;
7539;SDS011;3811;49.006;12.076;2024-03-02T12:24:24;9.97;;;7.63;;
7539;SDS011;3811;49.006;12.076;2024-03-02T12:26:53;8.83;;;6.57;;
7539;SDS011;3811;49.006;12.076;2024-03-02T12:29:20;13.20;;;6.77;;
7539;SDS011;3811;49.006;12.076;2024-03-02T12:31:50;13.87;;;8.43;;
7539;SDS011;3811;49.006;12.076;2024-03-02T12:34:18;14.40;;;8.60;;
7539;SDS011;3811;49.006;12.076;2024-03-02T12:36:46;10.30;;;7.67;;
7539;SDS011;3811;49.006;12.076;2024-03-02T12:39:15;10.63;;;7.23;;
7539;SDS011;3811;49.006;12.076;2024-03-02T12:41:42;12.77;;;7.90;;
7539;SDS011;3811;49.006;12.076;2024-03-02T12:44:09;12.67;;;8.37;;
7539;SDS011;3811;49.006;12.076;2024-03-02T12:46:36;12.13;;;7.53;;
7539;SDS011;3811;49.006;12.076;2024-03-02T12:49:09;15.73;;;8.80;;
7539;SDS011;3811;49.006;12.076;2024-03-02T12:51:37;14.97;;;7.90;;
7539;SDS011;3811;49.006;12.076;2024-03-02T12:54:05;9.70;;;7.50;;
7539;SDS011;3811;49.006;12.076;2024-03-02T12:56:33;12.17;;;8.67;;
7539;SDS011;3811;49.006;12.076;2024-03-02T12:59:01;15.40;;;8.13;;
7539;SDS011;3811;49.006;12.076;2024-03-02T13:01:28;12.40;;;8.20;;
7539;SDS011;3811;49.006;12.076;2024-03-02T13:03:56;10.90;;;7.30;;
7539;SDS011;3811;49.006;12.076;2024-03-02T13:06:25;13.47;;;8.20;;
7539;SDS011;3811;49.006;12.076;2024-03-02T13:08:54;12.17;;;8.80;;
7539;SDS011;3811;49.006;12.076;2024-03-02T13:11:22;11.13;;;7.63;;
7539;SDS011;3811;49.006;12.076;2024-03-02T13:13:49;17.97;;;8.63;;
7539;SDS011;3811;49.006;12.076;2024-03-02T13:16:17;13.40;;;8.10;;
7539;SDS011;3811;49.006;12.076;2024-03-02T13:18:45;14.43;;;8.73;;
7539;SDS011;3811;49.006;12.076;2024-03-02T13:21:12;13.97;;;8.37;;
7539;SDS011;3811;49.006;12.076;2024-03-02T13:23:42;12.43;;;8.03;;
7539;SDS011;3811;49.006;12.076;2024-03-02T13:26:09;11.80;;;7.23;;
7539;SDS011;3811;49.006;12.076;2024-03-02T13:28:38;12.27;;;7.60;;
7539;SDS011;3811;49.006;12.076;2024-03-02T13:31:05;11.70;;;7.80;;
7539;SDS011;3811;49.006;12.076;2024-03-02T13:33:32;13.83;;;8.00;;
7539;SDS011;3811;49.006;12.076;2024-03-02T13:36:00;11.20;;;7.07;;
7539;SDS011;3811;49.006;12.076;2024-03-02T13:38:28;12.93;;;7.63;;
7539;SDS011;3811;49.006;12.076;2024-03-02T13:40:56;11.30;;;7.20;;
7539;SDS011;3811;49.006;12.076;2024-03-02T13:43:25;12.53;;;7.77;;
7539;SDS011;3811;49.006;12.076;2024-03-02T13:45:53;11.43;;;7.20;;
7539;SDS011;3811;49.006;12.076;2024-03-02T13:48:20;12.00;;;8.00;;
7539;SDS011;3811;49.006;12.076;2024-03-02T13:50:47;14.07;;;7.13;;
7539;SDS011;3811;49.006;12.076;2024-03-02T13:53:14;13.40;;;7.77;;
7539;SDS011;3811;49.006;12.076;2024-03-02T13:55:41;10.23;;;6.30;;
7539;SDS011;3811;49.006;12.076;2024-03-02T13:58:10;11.03;;;6.63;;
7539;SDS011;3811;49.006;12.076;2024-03-02T14:00:38;11.00;;;7.40;;
7539;SDS011;3811;49.006;12.076;2024-03-02T14:03:05;10.17;;;6.30;;
7539;SDS011;3811;49.006;12.076;2024-03-02T14:05:33;13.57;;;7.53;;
7539;SDS011;3811;49.006;12.076;2024-03-02T14:08:01;8.50;;;7.07;;
7539;SDS011;3811;49.006;12.076;2024-03-02T14:10:29;9.83;;;6.77;;
7539;SDS011;3811;49.006;12.076;2024-03-02T14:12:56;11.80;;;7.53;;
7539;SDS011;3811;49.006;12.076;2024-03-02T14:15:25;10.07;;;7.23;;
7539;SDS011;3811;49.006;12.076;2024-03-02T14:17:52;8.97;;;5.97;;
7539;SDS011;3811;49.006;12.076;2024-03-02T14:20:19;10.43;;;7.30;;
7539;SDS011;3811;49.006;12.076;2024-03-02T14:22:48;11.03;;;6.17;;
7539;SDS011;3811;49.006;12.076;2024-03-02T14:25:16;10.67;;;6.97;;
7539;SDS011;3811;49.006;12.076;2024-03-02T14:27:44;8.83;;;6.67;;
7539;SDS011;3811;49.006;12.076;2024-03-02T14:30:12;11.50;;;7.87;;
7539;SDS011;3811;49.006;12.076;2024-03-02T14:32:41;11.57;;;6.83;;
7539;SDS011;3811;49.006;12.076;2024-03-02T14:35:08;10.43;;;6.17;;
7539;SDS011;3811;49.006;12.076;2024-03-02T14:37:36;9.03;;;6.50;;
7539;SDS011;3811;49.006;12.076;2024-03-02T14:40:04;11.03;;;6.93;;
7539;SDS011;3811;49.006;12.076;2024-03-02T14:42:31;11.50;;;6.97;;
7539;SDS011;3811;49.006;12.076;2024-03-02T14:44:59;11.93;;;7.53;;
7539;SDS011;3811;49.006;12.076;2024-03-02T14:47:27;9.10;;;6.73;;
7539;SDS011;3811;49.006;12.076;2024-03-02T14:49:56;9.53;;;6.67;;